Time;durP1;ratioP1;P1;durP2;ratioP2;P2;SDS_P1;SDS_P2;PMS_P1;PMS_P2;Temp;Humidity;BMP_temperature;BMP_pressure;BME280_temperature;BME280_humidity;BME280_pressure;Samples;Min_cycle;Max_cycle;Signal;HPM_P1;HPM_P2
2021/06/20 00:00:26;;;;;;;1999.90;999.90;;;23.70;99.90;;;;;;5072139;28;20177;-74
2021/06/20 00:02:53;;;;;;;1999.90;999.90;;;23.80;99.90;;;;;;5072271;28;20712;-74
2021/06/20 00:05:22;;;;;;;1999.90;999.90;;;23.80;99.90;;;;;;5053878;28;20194;-74
2021/06/20 00:07:49;;;;;;;1999.90;999.90;;;23.70;99.90;;;;;;5054018;28;20201;-74
2021/06/20 00:10:21;;;;;;;1999.90;999.90;;;23.80;99.90;;;;;;5072137;28;20270;-74
2021/06/20 00:12:47;;;;;;;1999.90;999.90;;;23.70;99.90;;;;;;5064715;28;20169;-73
2021/06/20 00:15:16;;;;;;;1999.90;999.90;;;23.70;99.90;;;;;;5062614;28;20178;-74
2021/06/20 00:17:42;;;;;;;1999.90;999.90;;;23.60;99.90;;;;;;5074719;28;20201;-74
2021/06/20 00:20:10;;;;;;;1999.90;999.90;;;23.60;99.90;;;;;;5074367;28;20179;-74
2021/06/20 00:22:35;;;;;;;1999.90;999.90;;;23.60;99.90;;;;;;5064133;28;20181;-74
2021/06/20 00:25:03;;;;;;;1999.90;999.90;;;23.60;99.90;;;;;;5075643;28;20169;-74
2021/06/20 00:27:29;;;;;;;1999.90;999.90;;;23.60;99.90;;;;;;5075906;28;20236;-74
2021/06/20 00:29:55;;;;;;;1999.90;999.90;;;23.50;99.90;;;;;;5057574;28;20227;-73
2021/06/20 00:32:21;;;;;;;1999.90;999.90;;;23.50;99.90;;;;;;5073816;28;20651;-74
2021/06/20 00:34:46;;;;;;;1999.90;999.90;;;23.60;99.90;;;;;;5073378;28;20215;-74
2021/06/20 00:37:12;;;;;;;1999.90;999.90;;;23.30;99.90;;;;;;5075332;28;20196;-74
2021/06/20 00:39:38;;;;;;;1999.90;999.90;;;23.50;99.90;;;;;;5075157;28;20550;-74
2021/06/20 00:42:04;;;;;;;1999.90;999.90;;;23.40;99.90;;;;;;5057195;28;20197;-73
2021/06/20 00:44:29;;;;;;;1999.90;999.90;;;23.40;99.90;;;;;;5075255;28;20683;-73
2021/06/20 00:46:55;;;;;;;1999.90;999.90;;;23.50;99.90;;;;;;5075128;28;20201;-74
2021/06/20 00:49:21;;;;;;;1999.90;999.90;;;23.30;99.90;;;;;;5075260;28;20169;-74
2021/06/20 00:51:47;;;;;;;1999.90;999.90;;;23.40;99.90;;;;;;5075144;28;20174;-74
2021/06/20 00:54:12;;;;;;;1999.90;999.90;;;23.50;99.90;;;;;;5075106;28;20173;-74
2021/06/20 00:56:39;;;;;;;1999.90;999.90;;;23.40;99.90;;;;;;5074804;28;20213;-74
2021/06/20 00:59:05;;;;;;;1999.90;999.90;;;23.40;99.90;;;;;;5074679;28;20177;-74
2021/06/20 01:01:34;;;;;;;1999.90;999.90;;;23.30;99.90;;;;;;5074975;28;20539;-73
2021/06/20 01:04:00;;;;;;;1999.90;999.90;;;23.30;99.90;;;;;;5075014;28;20604;-73
2021/06/20 01:06:27;;;;;;;1999.90;999.90;;;23.30;99.90;;;;;;5074781;28;20212;-73
2021/06/20 01:08:53;;;;;;;1999.90;999.90;;;23.20;99.90;;;;;;5073047;28;20545;-74
2021/06/20 01:11:20;;;;;;;1999.90;999.90;;;23.20;99.90;;;;;;5065033;28;20655;-74
2021/06/20 01:13:47;;;;;;;1999.90;999.90;;;23.20;99.90;;;;;;5074525;28;20226;-74
2021/06/20 01:16:13;;;;;;;1999.90;999.90;;;23.10;99.90;;;;;;5056551;28;20196;-74
2021/06/20 01:18:38;;;;;;;1999.90;999.90;;;23.20;99.90;;;;;;5074674;28;20226;-74
2021/06/20 01:21:06;;;;;;;1999.90;999.90;;;23.20;99.90;;;;;;5056582;28;20691;-73
2021/06/20 01:23:32;;;;;;;1999.90;999.90;;;23.20;99.90;;;;;;5074742;28;20177;-73
2021/06/20 01:25:59;;;;;;;1999.90;999.90;;;23.10;99.90;;;;;;5056395;28;20166;-73
2021/06/20 01:28:31;;;;;;;1999.90;999.90;;;23.10;99.90;;;;;;5056604;28;20639;-73
2021/06/20 01:30:59;;;;;;;1999.90;999.90;;;23.10;99.90;;;;;;5074430;28;20260;-74
2021/06/20 01:33:26;;;;;;;1999.90;999.90;;;23.20;99.90;;;;;;5056265;28;20205;-74
2021/06/20 01:35:53;;;;;;;1999.90;999.90;;;23.20;99.90;;;;;;5073953;28;20183;-73
2021/06/20 01:38:19;;;;;;;1999.90;999.90;;;23.10;99.90;;;;;;5059282;28;20596;-74
2021/06/20 01:40:45;;;;;;;1999.90;999.90;;;23.10;99.90;;;;;;5074216;28;20216;-73
2021/06/20 01:43:11;;;;;;;1999.90;999.90;;;23.10;99.90;;;;;;5056228;28;20169;-73
2021/06/20 01:45:38;;;;;;;1999.90;999.90;;;23.00;99.90;;;;;;5074012;28;20177;-74
2021/06/20 01:48:05;;;;;;;1999.90;999.90;;;23.00;99.90;;;;;;5074080;28;20686;-73
2021/06/20 01:50:32;;;;;;;1999.90;999.90;;;23.10;99.90;;;;;;5074018;28;20173;-72
2021/06/20 01:53:13;;;;;;;1999.90;999.90;;;23.10;99.90;;;;;;5073716;28;20675;-74
2021/06/20 01:55:41;;;;;;;1999.90;999.90;;;23.10;99.90;;;;;;5055938;28;20235;-74
2021/06/20 01:58:08;;;;;;;1999.90;999.90;;;23.10;99.90;;;;;;5069356;28;21592;-73
2021/06/20 02:00:36;;;;;;;1999.90;999.90;;;23.10;99.90;;;;;;5050839;28;20193;-74
2021/06/20 02:03:14;;;;;;;1999.90;999.90;;;23.10;99.90;;;;;;5073678;28;20636;-72
2021/06/20 02:05:41;;;;;;;1999.90;999.90;;;23.00;99.90;;;;;;5061132;28;20173;-74
2021/06/20 02:08:08;;;;;;;1999.90;999.90;;;22.90;99.90;;;;;;5073727;28;20516;-73
2021/06/20 02:10:34;;;;;;;1999.90;999.90;;;22.80;99.90;;;;;;5073632;28;20184;-73
2021/06/20 02:13:00;;;;;;;1999.90;999.90;;;22.90;99.90;;;;;;5055664;28;20271;-73
2021/06/20 02:15:26;;;;;;;1999.90;999.90;;;22.90;99.90;;;;;;5055529;28;20315;-74
2021/06/20 02:17:52;;;;;;;1999.90;999.90;;;22.90;99.90;;;;;;5069743;28;20551;-73
2021/06/20 02:20:19;;;;;;;1999.90;999.90;;;22.90;99.90;;;;;;5073112;28;20188;-73
2021/06/20 02:22:47;;;;;;;1999.90;999.90;;;22.90;99.90;;;;;;5055272;28;20169;-73
2021/06/20 02:25:15;;;;;;;1999.90;999.90;;;23.00;99.90;;;;;;5055394;28;20173;-74
2021/06/20 02:27:42;;;;;;;1999.90;999.90;;;22.90;99.90;;;;;;5073450;28;20644;-74
2021/06/20 02:30:09;;;;;;;1999.90;999.90;;;22.90;99.90;;;;;;5072420;28;20230;-74
2021/06/20 02:32:36;;;;;;;1999.90;999.90;;;22.90;99.90;;;;;;5046114;28;20174;-76
2021/06/20 02:35:03;;;;;;;1999.90;999.90;;;22.90;99.90;;;;;;5054052;28;20243;-74
2021/06/20 02:37:34;;;;;;;1999.90;999.90;;;22.90;99.90;;;;;;5052234;28;20219;-74
2021/06/20 02:40:01;;;;;;;1999.90;999.90;;;22.90;99.90;;;;;;5070976;28;20181;-73
2021/06/20 02:42:26;;;;;;;1999.90;999.90;;;22.90;99.90;;;;;;5073065;28;20199;-74
2021/06/20 02:44:53;;;;;;;1999.90;999.90;;;22.90;99.90;;;;;;5073247;28;20200;-74
2021/06/20 02:47:19;;;;;;;1999.90;999.90;;;23.00;99.90;;;;;;5072292;28;20196;-74
2021/06/20 02:49:45;;;;;;;1999.90;999.90;;;23.00;99.90;;;;;;5073124;28;20285;-73
2021/06/20 02:52:13;;;;;;;1999.90;999.90;;;23.00;99.90;;;;;;5072980;28;20189;-74
2021/06/20 02:54:50;;;;;;;1999.90;999.90;;;23.00;99.90;;;;;;5061222;28;20180;-74
2021/06/20 02:57:21;;;;;;;1999.90;999.90;;;23.00;99.90;;;;;;5072669;28;20308;-74
2021/06/20 02:59:47;;;;;;;1999.90;999.90;;;23.00;99.90;;;;;;5073064;28;20573;-73
2021/06/20 03:02:13;;;;;;;1999.90;999.90;;;23.10;99.90;;;;;;5072849;28;20197;-74
2021/06/20 03:04:39;;;;;;;1999.90;999.90;;;23.10;99.90;;;;;;5072838;28;20172;-75
2021/06/20 03:07:05;;;;;;;1999.90;999.90;;;23.10;99.90;;;;;;5072908;28;20189;-74
2021/06/20 03:09:30;;;;;;;1999.90;999.90;;;23.20;99.90;;;;;;5072859;28;20263;-74
2021/06/20 03:11:56;;;;;;;1999.90;999.90;;;23.30;99.90;;;;;;5054850;28;20187;-74
2021/06/20 03:14:22;;;;;;;1999.90;999.90;;;23.20;99.90;;;;;;5072759;28;20181;-74
2021/06/20 03:16:48;;;;;;;1999.90;999.90;;;23.30;99.90;;;;;;5072268;28;20555;-73
2021/06/20 03:19:14;;;;;;;1999.90;999.90;;;23.20;99.90;;;;;;5072628;28;20213;-74
2021/06/20 03:21:41;;;;;;;1999.90;999.90;;;23.10;99.90;;;;;;5072512;28;20262;-73
2021/06/20 03:24:09;;;;;;;1999.90;999.90;;;23.10;99.90;;;;;;5072661;28;20169;-74
2021/06/20 03:26:35;;;;;;;1999.90;999.90;;;23.10;99.90;;;;;;5072354;28;20197;-74
2021/06/20 03:29:01;;;;;;;1999.90;999.90;;;23.10;99.90;;;;;;5072600;28;20594;-73
2021/06/20 03:31:28;;;;;;;1999.90;999.90;;;23.00;99.90;;;;;;5072469;28;20191;-74
2021/06/20 03:33:57;;;;;;;1999.90;999.90;;;23.00;99.90;;;;;;5054281;28;20786;-74
2021/06/20 03:36:23;;;;;;;1999.90;999.90;;;22.90;99.90;;;;;;5072385;28;20204;-73
2021/06/20 03:38:49;;;;;;;1999.90;999.90;;;22.90;99.90;;;;;;5054379;28;20176;-73
2021/06/20 03:41:15;;;;;;;1999.90;999.90;;;22.90;99.90;;;;;;5054412;28;20189;-74
2021/06/20 03:43:44;;;;;;;1999.90;999.90;;;22.90;99.90;;;;;;5042110;28;20558;-74
2021/06/20 03:46:10;;;;;;;1999.90;999.90;;;22.90;99.90;;;;;;5054602;28;20547;-72
2021/06/20 03:48:37;;;;;;;1999.90;999.90;;;22.90;99.90;;;;;;5072240;28;20230;-74
2021/06/20 03:51:03;;;;;;;1999.90;999.90;;;22.90;99.90;;;;;;5057046;28;20181;-73
2021/06/20 03:53:29;;;;;;;1999.90;999.90;;;22.80;99.90;;;;;;5049754;28;20205;-73
2021/06/20 03:55:56;;;;;;;1999.90;999.90;;;22.70;99.90;;;;;;5075658;28;20592;-74
2021/06/20 03:58:22;;;;;;;1999.90;999.90;;;22.60;99.90;;;;;;5058359;28;20177;-73
2021/06/20 04:00:48;;;;;;;1999.90;999.90;;;22.40;99.90;;;;;;5068724;28;20288;-73
2021/06/20 04:03:13;;;;;;;1999.90;999.90;;;22.40;99.90;;;;;;5036122;28;20178;-74
2021/06/20 04:05:39;;;;;;;1999.90;999.90;;;22.50;99.90;;;;;;5022084;28;20260;-73
2021/06/20 04:08:05;;;;;;;1999.90;999.90;;;22.30;99.90;;;;;;5071763;28;20189;-74
2021/06/20 04:10:31;;;;;;;1999.90;999.90;;;22.20;99.90;;;;;;5074754;28;20541;-74
2021/06/20 04:12:58;;;;;;;1999.90;999.90;;;22.30;99.90;;;;;;5075386;28;20235;-73
2021/06/20 04:15:24;;;;;;;1999.90;999.90;;;22.40;99.90;;;;;;5057051;28;20235;-74
2021/06/20 04:17:50;;;;;;;1999.90;999.90;;;22.40;99.90;;;;;;5075688;28;20197;-74
2021/06/20 04:20:16;;;;;;;1999.90;999.90;;;22.30;99.90;;;;;;5075761;28;20181;-73
2021/06/20 04:22:43;;;;;;;1999.90;999.90;;;22.50;99.90;;;;;;5057647;28;20255;-74
2021/06/20 04:25:13;;;;;;;1999.90;999.90;;;22.50;99.90;;;;;;5057740;28;20545;-73
2021/06/20 04:27:39;;;;;;;1999.90;999.90;;;22.60;99.90;;;;;;5058028;28;20611;-73
2021/06/20 04:30:06;;;;;;;1999.90;999.90;;;22.30;99.90;;;;;;5057602;28;20218;-73
2021/06/20 04:32:31;;;;;;;1999.90;999.90;;;22.30;99.90;;;;;;5040701;28;20181;-73
2021/06/20 04:34:57;;;;;;;1999.90;999.90;;;22.40;99.90;;;;;;5057570;28;20677;-74
2021/06/20 04:37:23;;;;;;;1999.90;999.90;;;22.50;99.90;;;;;;5075443;28;20204;-74
2021/06/20 04:39:49;;;;;;;1999.90;999.90;;;22.60;99.90;;;;;;5057542;28;20231;-73
2021/06/20 04:42:16;;;;;;;1999.90;999.90;;;22.70;99.90;;;;;;5075212;28;20572;-73
2021/06/20 04:44:43;;;;;;;1999.90;999.90;;;22.60;99.90;;;;;;5075338;28;20255;-74
2021/06/20 04:47:10;;;;;;;1999.90;999.90;;;22.50;99.90;;;;;;5057307;28;20239;-74
2021/06/20 04:49:36;;;;;;;1999.90;999.90;;;22.60;99.90;;;;;;5057286;28;20169;-73
2021/06/20 04:52:05;;;;;;;1999.90;999.90;;;22.60;99.90;;;;;;5056772;28;20184;-73
2021/06/20 04:54:33;;;;;;;1999.90;999.90;;;22.50;99.90;;;;;;5048541;28;20651;-73
2021/06/20 04:56:59;;;;;;;1999.90;999.90;;;22.50;99.90;;;;;;5074872;28;20228;-74
2021/06/20 04:59:24;;;;;;;1999.90;999.90;;;22.50;99.90;;;;;;5057085;28;20173;-73
2021/06/20 05:01:50;;;;;;;1999.90;999.90;;;22.40;99.90;;;;;;5056231;28;20197;-73
2021/06/20 05:04:16;;;;;;;1999.90;999.90;;;22.40;99.90;;;;;;5074914;28;20177;-73
2021/06/20 05:06:41;;;;;;;1999.90;999.90;;;22.50;99.90;;;;;;5056789;28;20272;-74
2021/06/20 05:09:07;;;;;;;1999.90;999.90;;;22.50;99.90;;;;;;5074543;28;20710;-73
2021/06/20 05:11:32;;;;;;;1999.90;999.90;;;22.50;99.90;;;;;;5056811;28;20522;-73
2021/06/20 05:13:58;;;;;;;1999.90;999.90;;;22.50;99.90;;;;;;5074819;28;20251;-73
2021/06/20 05:16:24;;;;;;;1999.90;999.90;;;22.30;99.90;;;;;;5057259;28;20288;-73
2021/06/20 05:18:50;;;;;;;1999.90;999.90;;;22.30;99.90;;;;;;5056738;28;20551;-74
2021/06/20 05:21:16;;;;;;;1999.90;999.90;;;22.20;99.90;;;;;;5056757;28;20185;-74
2021/06/20 05:23:41;;;;;;;1999.90;999.90;;;22.30;99.90;;;;;;5060748;28;20252;-73
2021/06/20 05:26:07;;;;;;;1999.90;999.90;;;22.30;99.90;;;;;;5056216;28;20552;-73
2021/06/20 05:28:33;;;;;;;1999.90;999.90;;;22.40;99.90;;;;;;5056587;28;20177;-73
2021/06/20 05:30:58;;;;;;;1999.90;999.90;;;22.40;99.90;;;;;;5055636;28;20189;-74
2021/06/20 05:33:24;;;;;;;1999.90;999.90;;;22.40;99.90;;;;;;5072979;28;20184;-74
2021/06/20 05:35:50;;;;;;;1999.90;999.90;;;22.20;99.90;;;;;;5054940;28;20184;-73
2021/06/20 05:38:16;;;;;;;1999.90;999.90;;;22.10;99.90;;;;;;5054740;28;20312;-75
2021/06/20 05:40:42;;;;;;;1999.90;999.90;;;22.10;99.90;;;;;;5050912;28;20205;-73
2021/06/20 05:43:08;;;;;;;1999.90;999.90;;;22.10;99.90;;;;;;5034150;28;20174;-73
2021/06/20 05:45:36;;;;;;;1999.90;999.90;;;22.00;99.90;;;;;;5044076;28;21018;-73
2021/06/20 05:48:02;;;;;;;1999.90;999.90;;;22.00;99.90;;;;;;5035809;28;20186;-73
2021/06/20 05:50:28;;;;;;;1999.90;999.90;;;22.10;99.90;;;;;;5034430;28;20650;-73
2021/06/20 05:52:55;;;;;;;1999.90;999.90;;;22.00;99.90;;;;;;5035139;28;20173;-73
2021/06/20 05:55:20;;;;;;;1999.90;999.90;;;22.00;99.90;;;;;;5036181;28;20185;-73
2021/06/20 05:57:46;;;;;;;1999.90;999.90;;;21.90;99.90;;;;;;5055056;28;20288;-74
2021/06/20 06:00:13;;;;;;;1999.90;999.90;;;21.80;99.90;;;;;;5046060;28;20199;-74
2021/06/20 06:02:39;;;;;;;1999.90;999.90;;;21.70;99.90;;;;;;5052191;28;20225;-73
2021/06/20 06:05:07;;;;;;;1999.90;999.90;;;21.80;99.90;;;;;;5034878;28;20296;-73
2021/06/20 06:07:33;;;;;;;1999.90;999.90;;;21.70;99.90;;;;;;5033184;28;20196;-73
2021/06/20 06:09:59;;;;;;;1999.90;999.90;;;21.70;99.90;;;;;;5035919;28;20264;-74
2021/06/20 06:12:25;;;;;;;1999.90;999.90;;;21.90;99.90;;;;;;5041443;28;20256;-73
2021/06/20 06:14:55;;;;;;;1999.90;999.90;;;22.00;99.90;;;;;;5032983;28;20237;-73
2021/06/20 06:17:21;;;;;;;1999.90;999.90;;;22.00;99.90;;;;;;5037302;28;20202;-74
2021/06/20 06:19:51;;;;;;;1999.90;999.90;;;22.10;99.90;;;;;;5037468;28;20660;-74
2021/06/20 06:22:17;;;;;;;1999.90;999.90;;;22.00;99.90;;;;;;5034683;28;20190;-74
2021/06/20 06:24:44;;;;;;;1999.90;999.90;;;22.10;99.90;;;;;;5053041;28;20220;-74
2021/06/20 06:27:11;;;;;;;1999.90;999.90;;;22.10;99.90;;;;;;5054041;28;20189;-74
2021/06/20 06:29:37;;;;;;;1999.90;999.90;;;22.20;99.90;;;;;;5042553;28;20672;-74
2021/06/20 06:32:03;;;;;;;1999.90;999.90;;;22.30;99.90;;;;;;5054974;28;20264;-72
2021/06/20 06:34:29;;;;;;;1999.90;999.90;;;22.30;99.90;;;;;;5049306;28;20544;-73
2021/06/20 06:36:54;;;;;;;1999.90;999.90;;;22.40;99.90;;;;;;5084793;22;20274;-76
2021/06/20 06:39:20;;;;;;;1999.90;999.90;;;22.20;99.90;;;;;;5088761;28;20606;-76
2021/06/20 06:41:46;;;;;;;1999.90;999.90;;;22.30;99.90;;;;;;5090367;28;20223;-77
2021/06/20 06:44:12;;;;;;;1999.90;999.90;;;22.30;99.90;;;;;;5068643;28;20203;-76
2021/06/20 06:46:38;;;;;;;1999.90;999.90;;;22.20;99.90;;;;;;5076285;28;20193;-76
2021/06/20 06:49:03;;;;;;;1999.90;999.90;;;22.30;99.90;;;;;;5071061;28;20172;-77
2021/06/20 06:51:29;;;;;;;1999.90;999.90;;;22.30;99.90;;;;;;5072193;28;20184;-76
2021/06/20 06:53:55;;;;;;;1999.90;999.90;;;22.30;99.90;;;;;;5054991;28;20259;-77
2021/06/20 06:56:21;;;;;;;1999.90;999.90;;;22.40;99.90;;;;;;5051230;28;20263;-76
2021/06/20 06:58:47;;;;;;;1999.90;999.90;;;22.40;99.90;;;;;;5072573;28;20230;-76
2021/06/20 07:01:13;;;;;;;1999.90;999.90;;;22.50;99.90;;;;;;5072632;28;20197;-76
2021/06/20 07:03:38;;;;;;;1999.90;999.90;;;22.40;99.90;;;;;;5054801;28;20204;-75
2021/06/20 07:06:04;;;;;;;1999.90;999.90;;;22.40;99.90;;;;;;5054759;28;20706;-76
2021/06/20 07:08:30;;;;;;;1999.90;999.90;;;22.50;99.90;;;;;;5054636;28;20193;-76
2021/06/20 07:10:55;;;;;;;1999.90;999.90;;;22.50;99.90;;;;;;5054525;28;20177;-76
2021/06/20 07:13:21;;;;;;;1999.90;999.90;;;22.60;99.90;;;;;;5072476;28;20173;-76
2021/06/20 07:15:47;;;;;;;1999.90;999.90;;;22.60;99.90;;;;;;5054507;28;20177;-76
2021/06/20 07:18:14;;;;;;;1999.90;999.90;;;22.60;99.90;;;;;;5072622;28;20271;-76
2021/06/20 07:20:40;;;;;;;1999.90;999.90;;;22.60;99.90;;;;;;5072572;28;20176;-75
2021/06/20 07:23:06;;;;;;;1999.90;999.90;;;22.50;99.90;;;;;;5072531;28;20180;-76
2021/06/20 07:25:31;;;;;;;1999.90;999.90;;;22.60;99.90;;;;;;5054794;28;20180;-76
2021/06/20 07:27:57;;;;;;;1999.90;999.90;;;22.50;99.90;;;;;;5054232;28;20213;-76
2021/06/20 07:30:23;;;;;;;1999.90;999.90;;;22.60;99.90;;;;;;5054675;28;20315;-75
2021/06/20 07:32:50;;;;;;;1999.90;999.90;;;22.60;99.90;;;;;;5054614;28;20272;-76
2021/06/20 07:35:16;;;;;;;1999.90;999.90;;;22.60;99.90;;;;;;5072400;28;20173;-76
2021/06/20 07:37:41;;;;;;;1999.90;999.90;;;22.60;99.90;;;;;;5054176;28;20234;-76
2021/06/20 07:40:13;;;;;;;1999.90;999.90;;;22.60;99.90;;;;;;5054520;28;20647;-76
2021/06/20 07:42:39;;;;;;;1999.90;999.90;;;22.50;99.90;;;;;;5072441;28;20350;-76
2021/06/20 07:45:06;;;;;;;1999.90;999.90;;;22.50;99.90;;;;;;5071774;28;20227;-76
2021/06/20 07:47:31;;;;;;;1999.90;999.90;;;22.50;99.90;;;;;;5053932;28;20609;-76
2021/06/20 07:49:57;;;;;;;1999.90;999.90;;;22.50;99.90;;;;;;5072219;28;20169;-75
2021/06/20 07:52:23;;;;;;;1999.90;999.90;;;22.50;99.90;;;;;;5071754;28;20576;-76
2021/06/20 07:54:49;;;;;;;1999.90;999.90;;;22.50;99.90;;;;;;5072198;28;20173;-76
2021/06/20 07:57:19;;;;;;;1999.90;999.90;;;22.50;99.90;;;;;;5072113;28;20197;-76
2021/06/20 07:59:46;;;;;;;1999.90;999.90;;;22.60;99.90;;;;;;5072196;28;20545;-76
2021/06/20 08:02:13;;;;;;;1999.90;999.90;;;22.50;99.90;;;;;;5072048;28;20664;-76
2021/06/20 08:04:39;;;;;;;1999.90;999.90;;;22.50;99.90;;;;;;5054213;28;20177;-76
2021/06/20 08:07:05;;;;;;;1999.90;999.90;;;22.60;99.90;;;;;;5071602;28;20199;-76
2021/06/20 08:09:31;;;;;;;1999.90;999.90;;;22.60;99.90;;;;;;5054726;28;20181;-76
2021/06/20 08:11:57;;;;;;;1999.90;999.90;;;22.60;99.90;;;;;;5072035;28;20230;-76
2021/06/20 08:14:23;;;;;;;1999.90;999.90;;;22.70;99.90;;;;;;5071652;28;20200;-76
2021/06/20 08:16:49;;;;;;;1999.90;999.90;;;22.70;99.90;;;;;;5053860;28;20660;-76
2021/06/20 08:19:15;;;;;;;1999.90;999.90;;;22.80;99.90;;;;;;5071314;28;20188;-76
2021/06/20 08:21:43;;;;;;;1999.90;999.90;;;22.70;99.90;;;;;;5071130;28;20197;-76
2021/06/20 08:24:09;;;;;;;1999.90;999.90;;;22.80;99.90;;;;;;5070700;28;20168;-77
2021/06/20 08:26:35;;;;;;;1999.90;999.90;;;22.90;99.90;;;;;;5070766;28;20193;-76
2021/06/20 08:29:00;;;;;;;1999.90;999.90;;;22.90;99.90;;;;;;5070902;28;20537;-76
2021/06/20 08:31:26;;;;;;;1999.90;999.90;;;22.90;99.90;;;;;;5051252;28;20197;-76
2021/06/20 08:33:52;;;;;;;1999.90;999.90;;;22.90;99.90;;;;;;5066276;28;20207;-76
2021/06/20 08:36:17;;;;;;;1999.90;999.90;;;22.90;99.90;;;;;;5071213;28;20228;-75
2021/06/20 08:38:43;;;;;;;1999.90;999.90;;;22.90;99.90;;;;;;5075248;28;20715;-76
2021/06/20 08:41:13;;;;;;;1999.90;999.90;;;22.90;99.90;;;;;;5075034;28;20196;-76
2021/06/20 08:43:38;;;;;;;1999.90;999.90;;;22.90;99.90;;;;;;5075070;28;20238;-75
2021/06/20 08:46:04;;;;;;;1999.90;999.90;;;22.90;99.90;;;;;;5057375;28;20651;-75
2021/06/20 08:48:32;;;;;;;1999.90;999.90;;;22.80;99.90;;;;;;5075071;28;20225;-75
2021/06/20 08:50:58;;;;;;;1999.90;999.90;;;22.80;99.90;;;;;;5057203;28;20176;-75
2021/06/20 08:53:24;;;;;;;1999.90;999.90;;;22.90;99.90;;;;;;5057222;28;20655;-76
2021/06/20 08:55:50;;;;;;;1999.90;999.90;;;22.90;99.90;;;;;;5057733;28;20216;-75
2021/06/20 08:58:27;;;;;;;1999.90;999.90;;;22.90;99.90;;;;;;5073174;28;20193;-75
2021/06/20 09:00:57;;;;;;;1999.90;999.90;;;22.90;99.90;;;;;;5069977;28;20288;-76
2021/06/20 09:03:23;;;;;;;1999.90;999.90;;;22.90;99.90;;;;;;5073267;28;20165;-76
2021/06/20 09:06:00;;;;;;;1999.90;999.90;;;23.00;99.90;;;;;;5074684;28;20227;-76
2021/06/20 09:08:27;;;;;;;1999.90;999.90;;;23.10;99.90;;;;;;5071458;28;20199;-75
2021/06/20 09:10:54;;;;;;;1999.90;999.90;;;23.20;99.90;;;;;;5074206;28;20188;-76
2021/06/20 09:13:20;;;;;;;1999.90;999.90;;;23.20;99.90;;;;;;5074031;28;20228;-76
2021/06/20 09:15:56;;;;;;;1999.90;999.90;;;23.30;99.90;;;;;;5056132;28;20181;-75
2021/06/20 09:18:22;;;;;;;1999.90;999.90;;;23.40;99.90;;;;;;5073154;28;20196;-76
2021/06/20 09:20:49;;;;;;;1999.90;999.90;;;23.40;99.90;;;;;;5072632;28;20204;-76
2021/06/20 09:23:17;;;;;;;1999.90;999.90;;;23.40;99.90;;;;;;5072668;28;20245;-76
2021/06/20 09:25:44;;;;;;;1999.90;999.90;;;23.40;99.90;;;;;;5069882;28;20203;-76
2021/06/20 09:28:15;;;;;;;1999.90;999.90;;;23.50;99.90;;;;;;5073907;28;20200;-76
2021/06/20 09:30:45;;;;;;;1999.90;999.90;;;23.60;99.90;;;;;;5074380;28;20180;-76
2021/06/20 09:33:11;;;;;;;1999.90;999.90;;;23.70;99.90;;;;;;5074280;28;20196;-76
2021/06/20 09:35:58;;;;;;;1999.90;999.90;;;23.70;99.90;;;;;;5074134;28;20550;-76
2021/06/20 09:38:26;;;;;;;1999.90;999.90;;;23.80;99.90;;;;;;5073944;28;20224;-76
2021/06/20 09:41:00;;;;;;;1999.90;999.90;;;24.00;99.90;;;;;;5056144;28;20664;-77
2021/06/20 09:43:26;;;;;;;1999.90;999.90;;;24.10;99.90;;;;;;5074330;28;20248;-76
2021/06/20 09:45:52;;;;;;;1999.90;999.90;;;24.20;99.90;;;;;;5055430;28;20265;-76
2021/06/20 09:48:27;;;;;;;1999.90;999.90;;;24.20;99.90;;;;;;5072153;28;20664;-76
2021/06/20 09:50:57;;;;;;;1999.90;999.90;;;24.30;99.90;;;;;;5072445;28;20222;-77
2021/06/20 09:53:38;;;;;;;1999.90;999.90;;;24.30;99.90;;;;;;5072607;28;20169;-76
2021/06/20 09:56:20;;;;;;;1999.90;999.90;;;24.30;99.90;;;;;;5073921;28;20606;-76
2021/06/20 09:58:55;;;;;;;1999.90;999.90;;;24.30;99.90;;;;;;5053507;28;20192;-76
2021/06/20 10:01:21;;;;;;;1999.90;999.90;;;24.30;99.90;;;;;;5072629;28;20209;-75
2021/06/20 10:03:48;;;;;;;1999.90;999.90;;;24.40;99.90;;;;;;5073597;28;20177;-76
2021/06/20 10:06:14;;;;;;;1999.90;999.90;;;24.50;99.90;;;;;;5073789;28;20523;-76
2021/06/20 10:08:41;;;;;;;1999.90;999.90;;;24.50;99.90;;;;;;5073420;28;20632;-76
2021/06/20 10:11:08;;;;;;;1999.90;999.90;;;24.50;99.90;;;;;;5072298;28;20208;-76
2021/06/20 10:13:34;;;;;;;1999.90;999.90;;;24.50;99.90;;;;;;5073237;28;20290;-77
2021/06/20 10:16:20;;;;;;;1999.90;999.90;;;24.50;99.90;;;;;;5074152;28;20177;-76
2021/06/20 10:19:06;;;;;;;1999.90;999.90;;;24.60;99.90;;;;;;5072231;28;20185;-77
2021/06/20 10:21:38;;;;;;;1999.90;999.90;;;24.80;99.90;;;;;;5072577;28;20197;-77
2021/06/20 10:24:11;;;;;;;1999.90;999.90;;;24.90;99.90;;;;;;5054563;28;20527;-77
2021/06/20 10:26:40;;;;;;;1999.90;999.90;;;25.00;99.90;;;;;;5072806;28;20189;-77
2021/06/20 10:29:21;;;;;;;1999.90;999.90;;;25.10;99.90;;;;;;5055138;28;20223;-77
2021/06/20 10:31:48;;;;;;;1999.90;999.90;;;25.20;99.90;;;;;;5055190;28;20169;-77
2021/06/20 10:34:33;;;;;;;1999.90;999.90;;;25.10;99.90;;;;;;5073094;28;20606;-77
2021/06/20 10:37:02;;;;;;;1999.90;999.90;;;25.20;99.90;;;;;;5055281;28;20308;-77
2021/06/20 10:39:28;;;;;;;1999.90;999.90;;;25.30;99.90;;;;;;5073080;28;20227;-77
2021/06/20 10:42:04;;;;;;;1999.90;999.90;;;25.40;99.90;;;;;;5073024;28;20540;-77
2021/06/20 10:45:00;;;;;;;1999.90;999.90;;;25.50;99.90;;;;;;5072482;28;20601;-77
2021/06/20 10:47:33;;;;;;;1999.90;999.90;;;25.60;99.90;;;;;;5045146;28;20264;-77
2021/06/20 10:50:05;;;;;;;1999.90;999.90;;;25.80;99.90;;;;;;5070147;28;20719;-76
2021/06/20 10:52:31;;;;;;;1999.90;999.90;;;25.90;99.90;;;;;;5074177;28;20180;-79
2021/06/20 10:55:17;;;;;;;1999.90;999.90;;;26.00;99.90;;;;;;5057907;28;20704;-83
2021/06/20 10:57:50;;;;;;;1999.90;999.90;;;26.10;99.90;;;;;;5081849;28;20620;-83
2021/06/20 11:00:31;;;;;;;1999.90;999.90;;;26.10;99.90;;;;;;5082167;28;20176;-83
2021/06/20 11:03:14;;;;;;;1999.90;999.90;;;26.20;99.90;;;;;;5064584;28;20204;-84
2021/06/20 11:05:45;;;;;;;1999.90;999.90;;;26.30;99.90;;;;;;5065089;28;20169;-83
2021/06/20 11:08:11;;;;;;;1999.90;999.90;;;26.40;99.90;;;;;;5065487;28;20189;-83
2021/06/20 11:10:38;;;;;;;1999.90;999.90;;;26.40;99.90;;;;;;5083090;28;20319;-83
2021/06/20 11:13:04;;;;;;;1999.90;999.90;;;26.50;99.90;;;;;;5064335;28;20173;-83
2021/06/20 11:15:30;;;;;;;1999.90;999.90;;;26.60;99.90;;;;;;5064282;28;20204;-83
2021/06/20 11:18:07;;;;;;;1999.90;999.90;;;26.70;99.90;;;;;;5064572;28;20279;-83
2021/06/20 11:20:33;;;;;;;1999.90;999.90;;;26.70;99.90;;;;;;5081432;28;20176;-83
2021/06/20 11:23:00;;;;;;;1999.90;999.90;;;26.70;99.90;;;;;;5081814;28;20177;-83
2021/06/20 11:25:27;;;;;;;1999.90;999.90;;;26.80;99.90;;;;;;5081516;28;20193;-84
2021/06/20 11:27:53;;;;;;;1999.90;999.90;;;26.90;99.90;;;;;;5080902;28;20672;-83
2021/06/20 11:30:20;;;;;;;1999.90;999.90;;;27.00;99.90;;;;;;5081285;28;20184;-83
2021/06/20 11:32:46;;;;;;;1999.90;999.90;;;27.00;99.90;;;;;;5062699;28;20183;-83
2021/06/20 11:35:15;;;;;;;1999.90;999.90;;;27.10;99.90;;;;;;5081139;28;20530;-83
2021/06/20 11:37:55;;;;;;;1999.90;999.90;;;27.20;99.90;;;;;;5080315;28;20212;-83
2021/06/20 11:40:25;;;;;;;1999.90;999.90;;;27.40;99.90;;;;;;5080522;28;20169;-83
2021/06/20 11:42:56;;;;;;;1999.90;999.90;;;27.40;99.90;;;;;;5062905;28;20196;-84
2021/06/20 11:45:24;;;;;;;1999.90;999.90;;;27.40;99.90;;;;;;5063405;28;20247;-83
2021/06/20 11:47:52;;;;;;;1999.90;999.90;;;27.40;99.90;;;;;;5080906;28;20671;-83
2021/06/20 11:50:27;;;;;;;1999.90;999.90;;;27.40;99.90;;;;;;5081544;28;20644;-83
2021/06/20 11:53:01;;;;;;;1999.90;999.90;;;27.40;99.90;;;;;;5062419;28;20188;-84
2021/06/20 11:55:31;;;;;;;1999.90;999.90;;;27.50;99.90;;;;;;5042871;28;20181;-83
2021/06/20 11:58:02;;;;;;;1999.90;999.90;;;27.60;99.90;;;;;;5057648;28;20235;-83
2021/06/20 12:00:27;;;;;;;1999.90;999.90;;;27.70;99.90;;;;;;5082445;28;20256;-83